Time;durP1;ratioP1;P1;durP2;ratioP2;P2;SDS_P1;SDS_P2;PMS_P1;PMS_P2;Temp;Humidity;BMP_temperature;BMP_pressure;BME280_temperature;BME280_humidity;BME280_pressure;Samples;Min_cycle;Max_cycle;Signal;HPM_P1;HPM_P2
2021/06/29 00:00:08;;;;;;;9.70;6.15;;;;;;;;;;5074590;28;20154;-74
2021/06/29 00:02:34;;;;;;;7.65;4.88;;;;;;;;;;5074724;28;20024;-73
2021/06/29 00:05:00;;;;;;;8.65;4.85;;;;;;;;;;5074740;28;20039;-73
2021/06/29 00:07:26;;;;;;;6.93;4.35;;;;;;;;;;5074654;28;20037;-73
2021/06/29 00:09:52;;;;;;;9.35;4.78;;;;;;;;;;5074343;28;20113;-74
2021/06/29 00:12:18;;;;;;;14.77;6.25;;;;;;;;;;5074725;28;20429;-74
2021/06/29 00:14:45;;;;;;;11.52;6.25;;;;;;;;;;5074335;28;20029;-73
2021/06/29 00:17:12;;;;;;;10.43;5.80;;;;;;;;;;5074630;28;20069;-74
2021/06/29 00:19:38;;;;;;;8.65;5.65;;;;;;;;;;5072059;28;20079;-74
2021/06/29 00:22:06;;;;;;;11.90;5.97;;;;;;;;;;5054402;28;20025;-74
2021/06/29 00:24:32;;;;;;;11.20;5.90;;;;;;;;;;5068359;28;20031;-74
2021/06/29 00:26:58;;;;;;;9.45;5.60;;;;;;;;;;5074313;28;20107;-74
2021/06/29 00:29:24;;;;;;;12.27;6.00;;;;;;;;;;5074153;28;20029;-74
2021/06/29 00:31:50;;;;;;;10.93;5.38;;;;;;;;;;5074248;28;20102;-74
2021/06/29 00:34:16;;;;;;;9.95;5.68;;;;;;;;;;5073687;28;20034;-74
2021/06/29 00:36:42;;;;;;;8.85;5.65;;;;;;;;;;5074238;28;20478;-73
2021/06/29 00:39:08;;;;;;;6.38;5.32;;;;;;;;;;5073885;28;20150;-73
2021/06/29 00:41:34;;;;;;;8.25;5.78;;;;;;;;;;5073863;28;20078;-74
2021/06/29 00:44:01;;;;;;;10.25;5.93;;;;;;;;;;5074151;28;20039;-74
2021/06/29 00:46:27;;;;;;;8.52;6.05;;;;;;;;;;5073779;28;20035;-73
2021/06/29 00:48:53;;;;;;;10.73;6.10;;;;;;;;;;5089295;28;20028;-74
2021/06/29 00:51:20;;;;;;;8.55;5.88;;;;;;;;;;5073560;28;20115;-74
2021/06/29 00:53:47;;;;;;;9.30;5.65;;;;;;;;;;5073717;28;20103;-74
2021/06/29 00:56:14;;;;;;;7.50;5.68;;;;;;;;;;5073291;28;20098;-73
2021/06/29 00:58:43;;;;;;;8.60;6.00;;;;;;;;;;5073823;28;20060;-74
2021/06/29 01:01:09;;;;;;;7.32;5.45;;;;;;;;;;5073490;28;20025;-73
2021/06/29 01:03:38;;;;;;;12.23;5.82;;;;;;;;;;5073280;28;20039;-74
2021/06/29 01:06:09;;;;;;;10.15;5.72;;;;;;;;;;5073428;28;20032;-74
2021/06/29 01:08:35;;;;;;;8.10;5.57;;;;;;;;;;5073118;28;20394;-73
2021/06/29 01:11:01;;;;;;;8.75;5.13;;;;;;;;;;5073280;28;20020;-74
2021/06/29 01:13:38;;;;;;;9.52;6.03;;;;;;;;;;5073323;28;20052;-74
2021/06/29 01:16:06;;;;;;;9.00;5.85;;;;;;;;;;5073143;28;20100;-74
2021/06/29 01:18:35;;;;;;;11.40;6.15;;;;;;;;;;5073120;28;20028;-73
2021/06/29 01:21:02;;;;;;;9.05;6.40;;;;;;;;;;5071027;28;20025;-73
2021/06/29 01:23:29;;;;;;;13.40;7.07;;;;;;;;;;5073185;28;20034;-74
2021/06/29 01:26:14;;;;;;;11.30;7.22;;;;;;;;;;5073106;28;20394;-73
2021/06/29 01:31:17;;;;;;;9.00;6.13;;;;;;;;;;5072848;28;20027;-73
2021/06/29 01:33:44;;;;;;;14.25;7.47;;;;;;;;;;5072968;28;20027;-74
2021/06/29 01:36:11;;;;;;;10.85;7.03;;;;;;;;;;5072835;28;20032;-73
2021/06/29 01:38:37;;;;;;;13.30;7.32;;;;;;;;;;5072722;28;20503;-74
2021/06/29 01:41:03;;;;;;;10.82;6.97;;;;;;;;;;5072841;28;20033;-73
2021/06/29 01:43:38;;;;;;;12.40;8.20;;;;;;;;;;5072627;28;20029;-73
2021/06/29 01:46:04;;;;;;;11.77;7.43;;;;;;;;;;5072918;28;20031;-73
2021/06/29 01:48:32;;;;;;;11.07;7.57;;;;;;;;;;5072316;28;20529;-73
2021/06/29 01:50:58;;;;;;;13.43;7.78;;;;;;;;;;5072767;28;20567;-73
2021/06/29 01:53:24;;;;;;;12.95;7.72;;;;;;;;;;5071320;28;20016;-73
2021/06/29 01:55:51;;;;;;;12.85;9.35;;;;;;;;;;5072504;28;20120;-74
2021/06/29 01:58:28;;;;;;;10.88;8.00;;;;;;;;;;5072715;28;20459;-74
2021/06/29 02:00:54;;;;;;;9.48;7.28;;;;;;;;;;5072604;28;20025;-73
2021/06/29 02:03:20;;;;;;;12.73;7.65;;;;;;;;;;5072285;28;20058;-73
2021/06/29 02:05:47;;;;;;;13.45;7.90;;;;;;;;;;5072681;28;20030;-73
2021/06/29 02:08:13;;;;;;;15.07;8.68;;;;;;;;;;5072274;28;20438;-73
2021/06/29 02:10:39;;;;;;;13.57;8.32;;;;;;;;;;5072325;28;20443;-73
2021/06/29 02:13:05;;;;;;;13.70;8.10;;;;;;;;;;5072415;28;20145;-74
2021/06/29 02:15:31;;;;;;;12.75;7.70;;;;;;;;;;5072516;28;20052;-74
2021/06/29 02:17:58;;;;;;;14.43;8.43;;;;;;;;;;5072414;28;20063;-74
2021/06/29 02:20:24;;;;;;;13.10;8.00;;;;;;;;;;5063269;28;20021;-73
2021/06/29 02:22:52;;;;;;;11.98;9.25;;;;;;;;;;5061904;28;20545;-73
2021/06/29 02:25:18;;;;;;;14.73;8.77;;;;;;;;;;5072509;28;20029;-73
2021/06/29 02:27:44;;;;;;;12.50;9.32;;;;;;;;;;5072108;28;20085;-73
2021/06/29 02:30:11;;;;;;;14.75;9.35;;;;;;;;;;5070960;28;20063;-73
2021/06/29 02:32:37;;;;;;;14.68;8.73;;;;;;;;;;5072164;28;20074;-74
2021/06/29 02:35:04;;;;;;;14.23;8.68;;;;;;;;;;5072206;28;20028;-74
2021/06/29 02:37:30;;;;;;;15.30;8.45;;;;;;;;;;5072228;28;20108;-74
2021/06/29 02:39:56;;;;;;;12.10;8.30;;;;;;;;;;5072113;28;20079;-73
2021/06/29 02:42:22;;;;;;;14.80;9.13;;;;;;;;;;5072290;28;20032;-74
2021/06/29 02:44:48;;;;;;;16.80;9.13;;;;;;;;;;5071885;28;20412;-74
2021/06/29 02:47:15;;;;;;;14.88;9.07;;;;;;;;;;5072199;28;20031;-74
2021/06/29 02:49:41;;;;;;;13.13;8.93;;;;;;;;;;5071978;28;20407;-72
2021/06/29 02:52:07;;;;;;;13.18;8.18;;;;;;;;;;5072255;28;20090;-73
2021/06/29 02:54:33;;;;;;;12.90;8.07;;;;;;;;;;5071907;28;20020;-73
2021/06/29 02:57:00;;;;;;;13.40;8.70;;;;;;;;;;5071886;28;20039;-73
2021/06/29 02:59:26;;;;;;;14.30;8.98;;;;;;;;;;5071949;28;20143;-73
2021/06/29 03:01:52;;;;;;;12.98;8.55;;;;;;;;;;5071797;28;20633;-73
2021/06/29 03:04:18;;;;;;;14.02;8.30;;;;;;;;;;5072103;28;20028;-73
2021/06/29 03:06:44;;;;;;;10.95;8.07;;;;;;;;;;5071938;28;20494;-73
2021/06/29 03:09:10;;;;;;;11.68;8.13;;;;;;;;;;5071628;28;20051;-73
2021/06/29 03:11:37;;;;;;;13.95;9.32;;;;;;;;;;5071929;28;20024;-73
2021/06/29 03:14:03;;;;;;;16.17;8.95;;;;;;;;;;5071593;28;20025;-74
2021/06/29 03:16:29;;;;;;;15.65;7.60;;;;;;;;;;5070557;28;20031;-73
2021/06/29 03:18:55;;;;;;;14.52;9.10;;;;;;;;;;5071576;28;20056;-73
2021/06/29 03:21:23;;;;;;;13.00;8.07;;;;;;;;;;5071791;28;20076;-74
2021/06/29 03:23:49;;;;;;;13.23;8.43;;;;;;;;;;5071415;28;20153;-73
2021/06/29 03:26:15;;;;;;;13.55;8.35;;;;;;;;;;5071635;28;20024;-73
2021/06/29 03:28:41;;;;;;;11.77;8.55;;;;;;;;;;5071299;28;20083;-73
2021/06/29 03:31:07;;;;;;;13.82;8.73;;;;;;;;;;5073246;28;20025;-73
2021/06/29 03:33:33;;;;;;;13.73;8.23;;;;;;;;;;5075069;28;20029;-73
2021/06/29 03:36:00;;;;;;;13.88;8.77;;;;;;;;;;5075265;28;20479;-74
2021/06/29 03:38:26;;;;;;;12.88;8.02;;;;;;;;;;5075139;28;20032;-73
2021/06/29 03:40:52;;;;;;;11.55;7.85;;;;;;;;;;5075343;28;20376;-74
2021/06/29 03:43:18;;;;;;;16.02;8.60;;;;;;;;;;5074834;28;20133;-73
2021/06/29 03:45:45;;;;;;;10.63;7.03;;;;;;;;;;5075143;28;20031;-74
2021/06/29 03:48:11;;;;;;;13.98;9.30;;;;;;;;;;5074730;28;20514;-74
2021/06/29 03:50:37;;;;;;;9.95;7.13;;;;;;;;;;5075129;28;20020;-73
2021/06/29 03:53:03;;;;;;;12.15;8.07;;;;;;;;;;5074699;28;20433;-74
2021/06/29 03:55:29;;;;;;;13.20;8.35;;;;;;;;;;5074901;28;20502;-73
2021/06/29 03:57:56;;;;;;;13.45;7.50;;;;;;;;;;5074454;28;20497;-74
2021/06/29 04:00:22;;;;;;;12.85;7.38;;;;;;;;;;5074952;28;20048;-74
2021/06/29 04:02:48;;;;;;;18.63;7.72;;;;;;;;;;5074684;28;20035;-73
2021/06/29 04:05:17;;;;;;;11.32;7.93;;;;;;;;;;5074607;28;20074;-74
2021/06/29 04:08:01;;;;;;;13.00;8.15;;;;;;;;;;5075815;28;20029;-74
2021/06/29 04:10:27;;;;;;;13.00;7.85;;;;;;;;;;5074368;28;20038;-74
2021/06/29 04:12:53;;;;;;;14.57;8.05;;;;;;;;;;5073434;28;20021;-73
2021/06/29 04:15:19;;;;;;;9.18;7.15;;;;;;;;;;5074369;28;20116;-73
2021/06/29 04:17:45;;;;;;;13.65;7.90;;;;;;;;;;5074627;28;20075;-74
2021/06/29 04:20:11;;;;;;;12.73;7.72;;;;;;;;;;5073741;28;20024;-74
2021/06/29 04:22:38;;;;;;;15.27;7.35;;;;;;;;;;5074530;28;20095;-73
2021/06/29 04:25:06;;;;;;;11.05;7.38;;;;;;;;;;5074175;28;20025;-74
2021/06/29 04:27:32;;;;;;;15.02;7.85;;;;;;;;;;5074330;28;20016;-73
2021/06/29 04:29:58;;;;;;;14.15;7.72;;;;;;;;;;5073996;28;20155;-74
2021/06/29 04:32:24;;;;;;;11.65;7.80;;;;;;;;;;5073041;28;20406;-73
2021/06/29 04:34:50;;;;;;;14.05;7.85;;;;;;;;;;5074046;28;20020;-73
2021/06/29 04:37:16;;;;;;;14.23;7.30;;;;;;;;;;5060643;28;20021;-74
2021/06/29 04:39:44;;;;;;;13.70;7.45;;;;;;;;;;5069713;28;20052;-74
2021/06/29 04:42:10;;;;;;;12.48;7.88;;;;;;;;;;5073364;28;20020;-73
2021/06/29 04:44:38;;;;;;;15.88;6.95;;;;;;;;;;5073770;28;20028;-73
2021/06/29 04:47:08;;;;;;;12.40;7.13;;;;;;;;;;5074001;28;20548;-74
2021/06/29 04:49:34;;;;;;;13.25;7.93;;;;;;;;;;5073527;28;20036;-74
2021/06/29 04:52:00;;;;;;;10.45;6.57;;;;;;;;;;5073734;28;20059;-74
2021/06/29 04:54:27;;;;;;;13.27;7.38;;;;;;;;;;5073638;28;20054;-74
2021/06/29 04:56:53;;;;;;;10.10;7.35;;;;;;;;;;5073720;28;20066;-73
2021/06/29 04:59:19;;;;;;;13.10;7.50;;;;;;;;;;5073353;28;20471;-74
2021/06/29 05:01:45;;;;;;;13.05;8.10;;;;;;;;;;5073727;28;20024;-73
2021/06/29 05:04:11;;;;;;;12.52;7.10;;;;;;;;;;5073375;28;20063;-74
2021/06/29 05:06:37;;;;;;;11.73;7.07;;;;;;;;;;5073614;28;20028;-74
2021/06/29 05:09:03;;;;;;;11.95;6.97;;;;;;;;;;5073242;28;20032;-74
2021/06/29 05:11:29;;;;;;;12.95;7.18;;;;;;;;;;5073351;28;20566;-74
2021/06/29 05:13:55;;;;;;;11.18;7.13;;;;;;;;;;5073662;28;20024;-74
2021/06/29 05:16:22;;;;;;;17.73;8.27;;;;;;;;;;5073358;28;20442;-74
2021/06/29 05:18:48;;;;;;;16.52;7.43;;;;;;;;;;5073345;28;20048;-73
2021/06/29 05:21:14;;;;;;;14.73;7.25;;;;;;;;;;5071650;28;20031;-73
2021/06/29 05:23:40;;;;;;;12.73;6.45;;;;;;;;;;5073356;28;20038;-73
2021/06/29 05:26:06;;;;;;;8.90;6.93;;;;;;;;;;5073214;28;20017;-73
2021/06/29 05:28:32;;;;;;;17.08;8.77;;;;;;;;;;5072916;28;20028;-73
2021/06/29 05:30:58;;;;;;;14.10;7.10;;;;;;;;;;5073207;28;20052;-74
2021/06/29 05:33:24;;;;;;;11.23;7.60;;;;;;;;;;5072833;28;20510;-75
2021/06/29 05:35:50;;;;;;;13.43;7.18;;;;;;;;;;5072735;28;20032;-75
2021/06/29 05:38:16;;;;;;;13.32;7.80;;;;;;;;;;5073211;28;20031;-75
2021/06/29 05:40:42;;;;;;;12.77;7.32;;;;;;;;;;5072711;28;20455;-76
2021/06/29 05:43:08;;;;;;;12.07;6.88;;;;;;;;;;5072632;28;20051;-75
2021/06/29 05:45:35;;;;;;;10.50;6.80;;;;;;;;;;5073000;28;20025;-75
2021/06/29 05:48:01;;;;;;;17.20;8.00;;;;;;;;;;5072687;28;20024;-73
2021/06/29 05:50:27;;;;;;;13.65;7.90;;;;;;;;;;5072447;28;20501;-74
2021/06/29 05:52:54;;;;;;;12.90;7.30;;;;;;;;;;5072814;28;20028;-74
2021/06/29 05:55:20;;;;;;;14.05;7.13;;;;;;;;;;5072086;28;20047;-73
2021/06/29 05:57:46;;;;;;;13.38;7.78;;;;;;;;;;5071308;28;20024;-75
2021/06/29 06:00:14;;;;;;;12.18;7.88;;;;;;;;;;5072490;28;20063;-74
2021/06/29 06:02:40;;;;;;;13.15;7.75;;;;;;;;;;5072437;28;20033;-74
2021/06/29 06:05:07;;;;;;;17.13;8.48;;;;;;;;;;5072039;28;20401;-74
2021/06/29 06:07:33;;;;;;;13.43;7.40;;;;;;;;;;5072447;28;20491;-74
2021/06/29 06:09:59;;;;;;;13.05;8.02;;;;;;;;;;5072296;28;20544;-74
2021/06/29 06:12:26;;;;;;;14.23;7.10;;;;;;;;;;5071919;28;20086;-74
2021/06/29 06:14:52;;;;;;;14.52;7.60;;;;;;;;;;5071353;28;20020;-74
2021/06/29 06:17:18;;;;;;;11.57;7.60;;;;;;;;;;5071616;28;20017;-74
2021/06/29 06:19:44;;;;;;;15.90;7.75;;;;;;;;;;5069170;28;20040;-74
2021/06/29 06:22:11;;;;;;;11.77;6.32;;;;;;;;;;5070242;28;20052;-74
2021/06/29 06:24:37;;;;;;;10.40;6.38;;;;;;;;;;5072171;28;20033;-74
2021/06/29 06:27:03;;;;;;;11.82;6.45;;;;;;;;;;5072193;28;21584;-74
2021/06/29 06:29:29;;;;;;;12.27;6.72;;;;;;;;;;5072368;28;20079;-74
2021/06/29 06:31:55;;;;;;;12.25;6.97;;;;;;;;;;5072000;28;20028;-74
2021/06/29 06:34:21;;;;;;;15.75;8.27;;;;;;;;;;5072398;28;20048;-74
2021/06/29 06:36:47;;;;;;;12.27;7.05;;;;;;;;;;5072070;28;20024;-74
2021/06/29 06:39:14;;;;;;;15.60;7.32;;;;;;;;;;5087792;28;20017;-74
2021/06/29 06:41:40;;;;;;;14.57;7.35;;;;;;;;;;5072163;28;20094;-74
2021/06/29 06:44:07;;;;;;;11.80;6.68;;;;;;;;;;5072393;28;20051;-74
2021/06/29 06:46:33;;;;;;;9.13;6.35;;;;;;;;;;5071885;28;20067;-74
2021/06/29 06:48:59;;;;;;;10.50;7.00;;;;;;;;;;5072096;28;20074;-74
2021/06/29 06:51:25;;;;;;;10.93;6.97;;;;;;;;;;5072188;28;20023;-74
2021/06/29 06:53:51;;;;;;;12.00;6.72;;;;;;;;;;5071874;28;20063;-74
2021/06/29 06:56:17;;;;;;;11.77;6.65;;;;;;;;;;5071997;28;20056;-74
2021/06/29 06:58:44;;;;;;;10.93;6.68;;;;;;;;;;5066451;28;20410;-73
2021/06/29 07:01:11;;;;;;;10.68;6.85;;;;;;;;;;5059745;28;20028;-74
2021/06/29 07:03:37;;;;;;;12.07;6.85;;;;;;;;;;5063471;28;20091;-73
2021/06/29 07:06:05;;;;;;;9.48;6.47;;;;;;;;;;5056477;28;20052;-73
2021/06/29 07:08:31;;;;;;;11.10;6.57;;;;;;;;;;5069767;28;20086;-73
2021/06/29 07:10:58;;;;;;;10.07;6.47;;;;;;;;;;5066414;28;20039;-72
2021/06/29 07:13:24;;;;;;;11.40;6.85;;;;;;;;;;5070802;28;20547;-73
2021/06/29 07:15:50;;;;;;;11.15;5.93;;;;;;;;;;5070210;28;20062;-75
2021/06/29 07:18:17;;;;;;;13.27;7.68;;;;;;;;;;5070375;28;20045;-75
2021/06/29 07:20:43;;;;;;;12.05;6.53;;;;;;;;;;5070004;28;20056;-74
2021/06/29 07:23:10;;;;;;;10.55;5.90;;;;;;;;;;5056943;28;20024;-75
2021/06/29 07:25:36;;;;;;;11.07;6.20;;;;;;;;;;5066255;28;20466;-74
2021/06/29 07:28:03;;;;;;;8.38;5.85;;;;;;;;;;5070151;28;20036;-73
2021/06/29 07:30:29;;;;;;;11.80;6.20;;;;;;;;;;5063115;28;20064;-74
2021/06/29 07:32:58;;;;;;;12.85;5.90;;;;;;;;;;5066112;28;20067;-74
2021/06/29 07:35:25;;;;;;;11.82;6.60;;;;;;;;;;5067846;28;20075;-74
2021/06/29 07:37:51;;;;;;;9.75;6.65;;;;;;;;;;5061134;28;20028;-72
2021/06/29 07:40:17;;;;;;;11.38;6.13;;;;;;;;;;5065953;28;20021;-77
2021/06/29 07:42:43;;;;;;;13.05;6.80;;;;;;;;;;5064978;28;20020;-74
2021/06/29 07:45:09;;;;;;;10.68;6.43;;;;;;;;;;5069675;28;20028;-73
2021/06/29 07:47:35;;;;;;;11.43;6.00;;;;;;;;;;5067181;28;20058;-74
2021/06/29 07:50:04;;;;;;;12.43;6.10;;;;;;;;;;5063134;28;20036;-74
2021/06/29 07:52:30;;;;;;;12.60;7.05;;;;;;;;;;5064714;28;20553;-74
2021/06/29 07:54:56;;;;;;;12.68;6.95;;;;;;;;;;5066569;28;20035;-74
2021/06/29 07:57:22;;;;;;;11.23;7.00;;;;;;;;;;5058666;28;20142;-74
2021/06/29 07:59:48;;;;;;;9.60;6.53;;;;;;;;;;5067896;28;20025;-72
2021/06/29 08:02:14;;;;;;;11.68;6.60;;;;;;;;;;5068358;28;20135;-72
2021/06/29 08:04:41;;;;;;;15.45;6.75;;;;;;;;;;5067204;28;20036;-72
2021/06/29 08:07:07;;;;;;;12.50;5.80;;;;;;;;;;5069752;28;20107;-73
2021/06/29 08:09:33;;;;;;;10.82;7.05;;;;;;;;;;5070260;28;20040;-73
2021/06/29 08:11:59;;;;;;;7.80;5.90;;;;;;;;;;5069818;28;20032;-73
2021/06/29 08:14:25;;;;;;;11.52;6.18;;;;;;;;;;5070036;28;20081;-72
2021/06/29 08:16:51;;;;;;;10.18;6.97;;;;;;;;;;5068486;28;20040;-73
2021/06/29 08:19:17;;;;;;;9.88;5.85;;;;;;;;;;5057416;28;20033;-73
2021/06/29 08:21:44;;;;;;;10.98;5.68;;;;;;;;;;5065920;28;20048;-73
2021/06/29 08:24:10;;;;;;;13.20;7.18;;;;;;;;;;5069633;28;20483;-73
2021/06/29 08:26:36;;;;;;;11.82;5.90;;;;;;;;;;5062486;28;20148;-72
2021/06/29 08:29:02;;;;;;;11.13;6.50;;;;;;;;;;5068101;28;20033;-72
2021/06/29 08:31:28;;;;;;;8.50;5.55;;;;;;;;;;5068916;28;20020;-75
2021/06/29 08:33:54;;;;;;;8.45;5.85;;;;;;;;;;5065621;28;20079;-74
2021/06/29 08:36:21;;;;;;;8.60;6.10;;;;;;;;;;5065176;28;20097;-74
2021/06/29 08:38:47;;;;;;;9.20;5.00;;;;;;;;;;5068166;28;20048;-73
2021/06/29 08:41:14;;;;;;;11.45;5.88;;;;;;;;;;5064233;28;20055;-73
2021/06/29 08:43:40;;;;;;;8.02;6.22;;;;;;;;;;5064362;28;20036;-73
2021/06/29 08:46:06;;;;;;;9.77;6.03;;;;;;;;;;5063379;28;20036;-73
2021/06/29 08:48:33;;;;;;;8.52;5.88;;;;;;;;;;5062834;28;20502;-72
2021/06/29 08:51:04;;;;;;;9.88;5.50;;;;;;;;;;5059422;28;20064;-74
2021/06/29 08:53:30;;;;;;;7.47;5.25;;;;;;;;;;5068804;28;20029;-73
2021/06/29 08:55:58;;;;;;;11.00;6.28;;;;;;;;;;5086222;28;20037;-72
2021/06/29 08:58:24;;;;;;;9.98;6.43;;;;;;;;;;5060223;28;20021;-74
2021/06/29 09:00:52;;;;;;;10.82;6.00;;;;;;;;;;5062971;28;20387;-74
2021/06/29 09:03:18;;;;;;;8.68;5.70;;;;;;;;;;5067741;28;20021;-73
2021/06/29 09:05:45;;;;;;;7.18;5.00;;;;;;;;;;5067253;28;20050;-73
2021/06/29 09:08:13;;;;;;;9.60;5.05;;;;;;;;;;5058272;28;20104;-73
2021/06/29 09:10:40;;;;;;;10.63;5.47;;;;;;;;;;5063931;28;20032;-73
2021/06/29 09:13:08;;;;;;;11.18;5.40;;;;;;;;;;5057751;28;20024;-73
2021/06/29 09:15:37;;;;;;;6.15;5.55;;;;;;;;;;5065336;28;20153;-73
2021/06/29 09:18:06;;;;;;;9.05;5.82;;;;;;;;;;5067700;28;20025;-72
2021/06/29 09:20:32;;;;;;;8.70;5.85;;;;;;;;;;5063597;28;20024;-73
2021/06/29 09:23:07;;;;;;;11.07;5.18;;;;;;;;;;5060615;28;20499;-73
2021/06/29 09:25:33;;;;;;;7.65;5.30;;;;;;;;;;5062606;28;20652;-72
2021/06/29 09:27:59;;;;;;;9.02;5.10;;;;;;;;;;5066945;28;20491;-72
2021/06/29 09:30:31;;;;;;;6.00;5.05;;;;;;;;;;5065603;28;20028;-71
2021/06/29 09:33:12;;;;;;;8.45;5.30;;;;;;;;;;5061387;28;20025;-73
2021/06/29 09:35:39;;;;;;;9.20;4.78;;;;;;;;;;5066934;28;20055;-72
2021/06/29 09:38:05;;;;;;;7.30;4.72;;;;;;;;;;5067536;28;20020;-73
2021/06/29 09:40:32;;;;;;;8.02;5.78;;;;;;;;;;5062497;28;20032;-76
2021/06/29 09:43:15;;;;;;;14.98;6.30;;;;;;;;;;5066297;28;20032;-74
2021/06/29 09:45:50;;;;;;;8.70;5.63;;;;;;;;;;5063032;28;20560;-73
2021/06/29 09:48:18;;;;;;;10.48;5.75;;;;;;;;;;5065731;28;20038;-73
2021/06/29 09:50:49;;;;;;;8.68;6.05;;;;;;;;;;5067759;28;20763;-73
2021/06/29 09:53:22;;;;;;;7.88;5.05;;;;;;;;;;5067710;28;20051;-73
2021/06/29 09:55:49;;;;;;;8.20;5.28;;;;;;;;;;5063889;28;20094;-72
2021/06/29 09:58:17;;;;;;;16.63;7.53;;;;;;;;;;5057785;28;20029;-74
2021/06/29 10:00:44;;;;;;;9.75;5.63;;;;;;;;;;5066374;28;20035;-68
2021/06/29 10:03:18;;;;;;;7.13;4.80;;;;;;;;;;5063419;28;20669;-75
2021/06/29 10:05:44;;;;;;;7.53;4.57;;;;;;;;;;5067499;28;20035;-74
2021/06/29 10:08:10;;;;;;;7.60;5.05;;;;;;;;;;5063103;28;20033;-74
2021/06/29 10:10:37;;;;;;;8.60;5.20;;;;;;;;;;5061082;28;20125;-72
2021/06/29 10:13:21;;;;;;;6.88;5.13;;;;;;;;;;5062285;28;20036;-75
2021/06/29 10:15:47;;;;;;;9.05;4.63;;;;;;;;;;5066309;28;20154;-72
2021/06/29 10:18:13;;;;;;;11.77;5.00;;;;;;;;;;5066845;28;20028;-72
2021/06/29 10:20:53;;;;;;;9.93;4.82;;;;;;;;;;5064777;28;20105;-74
2021/06/29 10:23:19;;;;;;;7.93;5.10;;;;;;;;;;5066336;28;20032;-72
2021/06/29 10:25:46;;;;;;;6.70;5.25;;;;;;;;;;5069043;28;20123;-71
2021/06/29 10:28:18;;;;;;;7.55;5.00;;;;;;;;;;5065969;28;20074;-72
2021/06/29 10:30:45;;;;;;;6.90;4.63;;;;;;;;;;5065518;28;20024;-72
2021/06/29 10:33:12;;;;;;;13.82;5.20;;;;;;;;;;5067271;28;20028;-72
2021/06/29 10:35:38;;;;;;;7.85;4.53;;;;;;;;;;5061571;28;20044;-73
2021/06/29 10:38:04;;;;;;;7.10;4.15;;;;;;;;;;5065907;28;20024;-72
2021/06/29 10:40:31;;;;;;;9.52;4.45;;;;;;;;;;5065214;28;20032;-73
2021/06/29 10:42:59;;;;;;;7.82;5.22;;;;;;;;;;5069633;28;20036;-72
2021/06/29 10:45:32;;;;;;;10.68;5.03;;;;;;;;;;5070325;28;20025;-73
2021/06/29 10:48:17;;;;;;;11.45;4.78;;;;;;;;;;5062085;28;20115;-72
2021/06/29 10:50:43;;;;;;;7.13;4.50;;;;;;;;;;5085315;28;20452;-72
2021/06/29 10:53:29;;;;;;;10.50;4.82;;;;;;;;;;5070960;28;20612;-72
2021/06/29 10:55:55;;;;;;;8.40;4.88;;;;;;;;;;5067110;28;20069;-71
2021/06/29 10:58:35;;;;;;;8.27;5.03;;;;;;;;;;5069638;28;20100;-72
2021/06/29 11:01:34;;;;;;;9.40;5.88;;;;;;;;;;5069982;28;20487;-74
2021/06/29 11:04:02;;;;;;;7.75;4.60;;;;;;;;;;5057147;28;20033;-73
2021/06/29 11:06:47;;;;;;;5.97;4.63;;;;;;;;;;5070359;28;20040;-72
2021/06/29 11:09:19;;;;;;;8.35;5.40;;;;;;;;;;5060711;28;20068;-73
2021/06/29 11:12:04;;;;;;;8.02;4.82;;;;;;;;;;5069000;28;20029;-72
2021/06/29 11:14:30;;;;;;;5.32;4.55;;;;;;;;;;5068749;28;20028;-74
2021/06/29 11:16:58;;;;;;;8.57;5.20;;;;;;;;;;5068698;28;20491;-73
2021/06/29 11:19:43;;;;;;;8.75;5.65;;;;;;;;;;5068989;28;21603;-73
2021/06/29 11:22:29;;;;;;;7.47;5.22;;;;;;;;;;5065167;28;20032;-73
2021/06/29 11:25:03;;;;;;;7.30;4.38;;;;;;;;;;5080093;28;20119;-74
2021/06/29 11:27:55;;;;;;;7.68;4.85;;;;;;;;;;5070562;28;20036;-73
2021/06/29 11:30:40;;;;;;;7.50;4.40;;;;;;;;;;5053104;28;20155;-72
2021/06/29 11:33:25;;;;;;;6.53;4.63;;;;;;;;;;5061391;28;20037;-73
2021/06/29 11:35:51;;;;;;;9.82;4.30;;;;;;;;;;5068022;28;20040;-73
2021/06/29 11:38:17;;;;;;;6.55;4.15;;;;;;;;;;5067298;28;20040;-71
2021/06/29 11:40:43;;;;;;;6.97;5.00;;;;;;;;;;5067491;28;20340;-73
2021/06/29 11:43:14;;;;;;;6.57;5.07;;;;;;;;;;5069929;28;20581;-72
2021/06/29 11:45:40;;;;;;;5.43;4.30;;;;;;;;;;5067972;28;20032;-73
2021/06/29 11:48:26;;;;;;;11.45;5.22;;;;;;;;;;5069780;28;20057;-73
2021/06/29 11:50:52;;;;;;;7.93;4.68;;;;;;;;;;5064803;28;20044;-75
2021/06/29 11:53:22;;;;;;;7.88;4.25;;;;;;;;;;5063904;28;20073;-75
2021/06/29 11:55:48;;;;;;;6.10;4.10;;;;;;;;;;5066704;28;20233;-74
2021/06/29 11:58:14;;;;;;;5.60;4.15;;;;;;;;;;5060692;28;20081;-75
2021/06/29 12:00:40;;;;;;;5.47;3.65;;;;;;;;;;5065376;28;20029;-74
2021/06/29 12:03:08;;;;;;;6.55;4.05;;;;;;;;;;5067798;28;20103;-76
2021/06/29 12:05:36;;;;;;;5.97;4.18;;;;;;;;;;5061034;28;20056;-76
2021/06/29 12:08:05;;;;;;;5.60;4.47;;;;;;;;;;5070443;28;20031;-75
2021/06/29 12:10:36;;;;;;;8.40;4.03;;;;;;;;;;5069719;28;20037;-74
2021/06/29 12:13:04;;;;;;;7.57;4.88;;;;;;;;;;5069722;28;20439;-77
2021/06/29 12:15:37;;;;;;;6.88;4.18;;;;;;;;;;5070507;28;20036;-77
2021/06/29 12:18:10;;;;;;;8.77;4.18;;;;;;;;;;5070948;28;20059;-76
2021/06/29 12:20:36;;;;;;;6.05;4.00;;;;;;;;;;5070283;28;20044;-77
2021/06/29 12:23:03;;;;;;;5.07;3.60;;;;;;;;;;5071201;28;20028;-77
2021/06/29 12:25:31;;;;;;;7.43;5.00;;;;;;;;;;5071178;28;20029;-76
2021/06/29 12:27:59;;;;;;;6.50;3.97;;;;;;;;;;5068727;28;20032;-77
2021/06/29 12:30:56;;;;;;;7.20;4.65;;;;;;;;;;5071138;28;20032;-77
2021/06/29 12:33:24;;;;;;;5.43;4.25;;;;;;;;;;5070217;28;20123;-76
2021/06/29 12:35:53;;;;;;;5.13;4.18;;;;;;;;;;5070758;28;20028;-76
2021/06/29 12:38:21;;;;;;;7.03;3.97;;;;;;;;;;5070625;28;20025;-76
2021/06/29 12:40:49;;;;;;;11.45;4.43;;;;;;;;;;5070779;28;20032;-74
2021/06/29 12:43:23;;;;;;;7.95;4.60;;;;;;;;;;5070415;28;20037;-77
2021/06/29 12:45:50;;;;;;;6.90;4.32;;;;;;;;;;5070906;28;20040;-75
2021/06/29 12:48:17;;;;;;;10.10;4.25;;;;;;;;;;5063858;28;20083;-77
2021/06/29 12:50:54;;;;;;;4.13;3.72;;;;;;;;;;5068947;28;20056;-75
2021/06/29 12:53:23;;;;;;;7.47;4.20;;;;;;;;;;5069929;28;20059;-76
2021/06/29 12:55:49;;;;;;;5.10;4.13;;;;;;;;;;5069601;28;20047;-75
2021/06/29 12:58:16;;;;;;;5.55;3.70;;;;;;;;;;5067766;28;20272;-73
2021/06/29 13:00:49;;;;;;;6.50;4.13;;;;;;;;;;5070053;28;20094;-74
2021/06/29 13:03:20;;;;;;;8.35;4.28;;;;;;;;;;5069015;28;20032;-72
2021/06/29 13:05:46;;;;;;;6.28;4.57;;;;;;;;;;5069359;28;20036;-74
2021/06/29 13:08:14;;;;;;;4.22;3.60;;;;;;;;;;5069360;28;20487;-74
2021/06/29 13:10:41;;;;;;;5.78;3.97;;;;;;;;;;5069897;28;20486;-76
2021/06/29 13:13:15;;;;;;;8.25;4.13;;;;;;;;;;5070783;28;20122;-75
2021/06/29 13:15:41;;;;;;;;;;;;;;;;;;5069931;28;20111;-75
2021/06/29 13:18:07;;;;;;;8.18;4.40;;;;;;;;;;5069964;28;20402;-74
2021/06/29 13:20:33;;;;;;;5.65;3.83;;;;;;;;;;5060961;28;20067;-75
2021/06/29 13:23:01;;;;;;;6.18;4.25;;;;;;;;;;5069770;28;20498;-74
2021/06/29 13:25:27;;;;;;;6.50;4.13;;;;;;;;;;5069659;28;20474;-74
2021/06/29 13:27:53;;;;;;;4.93;3.85;;;;;;;;;;5094750;28;20372;-75
2021/06/29 13:30:20;;;;;;;6.30;4.13;;;;;;;;;;5069737;28;20095;-77
2021/06/29 13:32:46;;;;;;;4.30;3.90;;;;;;;;;;5061651;28;20398;-76
2021/06/29 13:35:14;;;;;;;5.05;4.07;;;;;;;;;;5068231;28;20505;-76
2021/06/29 13:37:50;;;;;;;4.45;3.50;;;;;;;;;;5068701;28;20363;-76
2021/06/29 13:40:42;;;;;;;5.43;3.40;;;;;;;;;;5068330;28;20029;-74
2021/06/29 13:43:20;;;;;;;5.53;3.53;;;;;;;;;;5060784;28;20044;-75
2021/06/29 13:45:50;;;;;;;7.40;3.97;;;;;;;;;;5061640;28;20032;-75
2021/06/29 13:48:26;;;;;;;5.07;4.10;;;;;;;;;;5057738;28;20847;-74
2021/06/29 13:50:52;;;;;;;4.43;3.90;;;;;;;;;;5053833;28;20070;-76
2021/06/29 13:53:23;;;;;;;6.32;3.83;;;;;;;;;;5062663;28;20028;-75
2021/06/29 13:55:56;;;;;;;7.43;4.00;;;;;;;;;;5063464;28;20033;-75
2021/06/29 13:58:26;;;;;;;6.57;3.40;;;;;;;;;;5056235;28;20044;-76
2021/06/29 14:00:56;;;;;;;5.63;3.95;;;;;;;;;;5074053;28;20075;-76
2021/06/29 14:03:28;;;;;;;7.00;3.85;;;;;;;;;;5060228;28;20055;-74
2021/06/29 14:06:02;;;;;;;4.18;3.67;;;;;;;;;;5061143;28;20024;-73
2021/06/29 14:08:29;;;;;;;8.27;3.63;;;;;;;;;;5058991;28;20048;-72
2021/06/29 14:11:01;;;;;;;4.55;3.47;;;;;;;;;;5058416;28;20021;-74
2021/06/29 14:13:32;;;;;;;5.90;3.57;;;;;;;;;;5065545;28;20781;-73
2021/06/29 14:15:58;;;;;;;7.10;3.72;;;;;;;;;;5065361;28;20378;-74
2021/06/29 14:18:24;;;;;;;4.82;3.08;;;;;;;;;;5063806;28;20104;-75
2021/06/29 14:20:50;;;;;;;4.57;3.53;;;;;;;;;;5060298;28;20037;-74
2021/06/29 14:23:17;;;;;;;10.88;3.88;;;;;;;;;;5060756;28;20108;-74
2021/06/29 14:25:44;;;;;;;7.53;3.40;;;;;;;;;;5056742;28;20081;-73
2021/06/29 14:28:10;;;;;;;5.88;3.53;;;;;;;;;;5059990;28;20483;-72
2021/06/29 14:30:37;;;;;;;7.13;3.53;;;;;;;;;;5063803;28;20684;-73
2021/06/29 14:33:05;;;;;;;5.68;3.20;;;;;;;;;;5061132;28;20032;-73
2021/06/29 14:35:31;;;;;;;5.43;3.47;;;;;;;;;;5063535;28;20633;-73
2021/06/29 14:37:58;;;;;;;6.13;3.35;;;;;;;;;;5065539;28;20045;-73
2021/06/29 14:40:24;;;;;;;4.32;3.40;;;;;;;;;;5060316;28;20028;-73
2021/06/29 14:42:51;;;;;;;5.30;3.67;;;;;;;;;;5062034;28;20032;-73